createdAt,value
2018-09-05T00:00:14.752Z,18.90
2018-09-05T00:05:18.153Z,17.97
2018-09-05T00:10:21.797Z,17.63
2018-09-05T00:15:25.180Z,20.13
2018-09-05T00:20:28.605Z,18.27
2018-09-05T00:25:32.079Z,23.07
2018-09-05T00:30:35.653Z,19.67
2018-09-05T00:35:39.099Z,20.57
2018-09-05T00:40:42.911Z,22.60
2018-09-05T00:45:46.308Z,22.63
2018-09-05T00:50:49.675Z,22.43
2018-09-05T00:55:53.533Z,23.73
2018-09-05T01:00:57.097Z,23.80
2018-09-05T01:06:00.660Z,21.77
2018-09-05T01:11:04.343Z,23.67
2018-09-05T01:16:07.877Z,21.00
2018-09-05T01:21:11.391Z,25.37
2018-09-05T01:26:14.871Z,26.37
2018-09-05T01:31:18.352Z,24.97
2018-09-05T01:36:21.724Z,22.97
2018-09-05T01:41:25.279Z,25.13
2018-09-05T01:46:28.827Z,26.13
2018-09-05T01:51:33.223Z,29.30
2018-09-05T01:56:36.832Z,26.40
2018-09-05T02:01:40.305Z,31.17
2018-09-05T02:06:43.678Z,27.37
2018-09-05T02:11:47.092Z,29.93
2018-09-05T02:16:50.830Z,29.47
2018-09-05T02:21:54.371Z,30.00
2018-09-05T02:26:57.876Z,31.03
2018-09-05T02:32:01.489Z,31.47
2018-09-05T02:37:04.876Z,33.30
2018-09-05T02:42:08.337Z,38.13
2018-09-05T02:47:11.779Z,34.73
2018-09-05T02:52:15.212Z,32.37
2018-09-05T02:57:18.677Z,32.47
2018-09-05T03:02:22.048Z,29.07
2018-09-05T03:07:25.371Z,28.50
2018-09-05T03:12:28.848Z,29.70
2018-09-05T03:17:32.446Z,34.20
2018-09-05T03:22:35.987Z,33.30
2018-09-05T03:27:39.779Z,31.40
2018-09-05T03:32:43.403Z,37.03
2018-09-05T03:37:46.767Z,32.10
2018-09-05T03:42:50.186Z,34.00
2018-09-05T03:48:26.790Z,37.53
2018-09-05T03:53:30.149Z,31.17
2018-09-05T03:58:33.559Z,31.03
2018-09-05T04:03:37.165Z,32.43
2018-09-05T04:08:40.681Z,32.93
2018-09-05T04:13:44.208Z,30.63
2018-09-05T04:18:47.866Z,31.37
2018-09-05T04:23:51.223Z,32.57
2018-09-05T04:28:54.803Z,35.37
2018-09-05T04:33:58.182Z,37.93
2018-09-05T04:39:01.698Z,40.00
2018-09-05T04:44:06.061Z,37.87
2018-09-05T04:49:09.533Z,40.70
2018-09-05T04:54:13.105Z,42.57
2018-09-05T04:59:16.678Z,52.53
2018-09-05T05:04:20.061Z,54.97
2018-09-05T05:09:23.407Z,63.73
2018-09-05T05:14:30.201Z,59.10
2018-09-05T05:19:33.545Z,62.07
2018-09-05T05:24:36.921Z,51.73
2018-09-05T05:29:40.533Z,68.07
2018-09-05T05:34:44.167Z,58.80
2018-09-05T05:39:47.816Z,46.40
2018-09-05T05:44:51.355Z,49.67
2018-09-05T05:49:54.791Z,53.75
2018-09-05T06:15:09.995Z,49.63
2018-09-05T06:41:00.320Z,40.10
2018-09-05T06:42:03.897Z,35.10
2018-09-05T07:20:50.064Z,27.80
2018-09-05T07:21:53.470Z,26.20
2018-09-05T07:22:56.838Z,28.47
2018-09-05T07:27:09.481Z,27.47
2018-09-05T07:28:13.047Z,28.70
2018-09-05T07:29:16.655Z,28.20
2018-09-05T07:30:20.460Z,28.37
2018-09-05T07:34:32.997Z,27.15
2018-09-05T07:35:36.351Z,26.50
2018-09-05T08:11:16.696Z,16.60
2018-09-05T08:12:20.377Z,18.07
2018-09-05T08:13:23.849Z,14.90
2018-09-05T08:14:27.308Z,14.87
2018-09-05T08:15:30.981Z,17.17
2018-09-05T08:24:59.706Z,13.30
2018-09-05T08:26:03.144Z,14.73
2018-09-05T08:27:06.847Z,12.77
2018-09-05T08:28:10.329Z,13.50
2018-09-05T08:29:13.818Z,12.83
2018-09-05T08:30:17.468Z,11.53
2018-09-05T08:31:21.154Z,13.57
2018-09-05T08:32:24.699Z,12.87
2018-09-05T08:33:28.207Z,12.07
2018-09-05T08:34:31.738Z,13.27
2018-09-05T08:35:35.416Z,11.87
2018-09-05T08:36:39.356Z,13.00
2018-09-05T08:37:43.079Z,10.67
2018-09-05T08:38:46.634Z,12.87
2018-09-05T08:39:50.221Z,11.70
2018-09-05T08:40:54.213Z,13.77
2018-09-05T08:41:57.818Z,10.17
2018-09-05T08:43:01.312Z,11.77
2018-09-05T08:44:05.530Z,10.53
2018-09-05T08:45:09.229Z,14.53
2018-09-05T08:46:12.858Z,12.40
2018-09-05T08:47:16.244Z,9.73
2018-09-05T08:48:19.641Z,10.63
2018-09-05T08:49:23.863Z,11.37
2018-09-05T08:50:28.662Z,12.20
2018-09-05T08:51:32.797Z,10.20
2018-09-05T08:52:36.294Z,12.40
2018-09-05T08:53:40.160Z,12.80
2018-09-05T08:54:43.507Z,9.03
2018-09-05T08:55:47.791Z,12.17
2018-09-05T08:56:51.170Z,12.07
2018-09-05T08:57:55.140Z,11.13
2018-09-05T08:58:58.828Z,12.80
2018-09-05T09:00:02.753Z,12.80
2018-09-05T09:01:06.485Z,11.43
2018-09-05T09:02:09.972Z,11.77
2018-09-05T09:03:13.611Z,11.23
2018-09-05T09:04:16.951Z,11.03
2018-09-05T09:05:20.431Z,11.90
2018-09-05T09:06:24.275Z,12.20
2018-09-05T09:07:27.764Z,10.13
2018-09-05T09:08:31.352Z,13.27
2018-09-05T09:09:34.727Z,9.73
2018-09-05T09:10:38.144Z,11.10
2018-09-05T09:11:41.537Z,11.40
2018-09-05T09:12:45.046Z,10.67
2018-09-05T09:13:48.445Z,14.03
2018-09-05T09:14:51.965Z,10.80
2018-09-05T09:15:55.802Z,11.77
2018-09-05T09:16:59.648Z,11.40
2018-09-05T09:18:03.226Z,10.03
2018-09-05T09:19:06.833Z,12.10
2018-09-05T09:20:10.221Z,10.70
2018-09-05T09:21:13.895Z,11.83
2018-09-05T09:22:17.423Z,11.83
2018-09-05T09:23:21.048Z,10.47
2018-09-05T09:24:24.529Z,12.53
2018-09-05T09:25:28.207Z,10.53
2018-09-05T09:26:31.576Z,12.47
2018-09-05T09:27:35.183Z,11.03
2018-09-05T09:28:38.715Z,10.00
2018-09-05T09:29:42.197Z,11.27
2018-09-05T09:30:45.624Z,11.00
2018-09-05T09:31:49.143Z,12.13
2018-09-05T09:32:52.898Z,9.37
2018-09-05T09:33:56.403Z,15.37
2018-09-05T09:35:00.107Z,10.23
2018-09-05T09:36:03.619Z,9.67
2018-09-05T09:37:07.233Z,11.93
2018-09-05T09:38:10.652Z,10.77
2018-09-05T09:39:14.226Z,11.83
2018-09-05T09:40:17.674Z,11.10
2018-09-05T09:41:21.193Z,10.00
2018-09-05T09:42:24.696Z,9.00
2018-09-05T09:43:28.422Z,10.90
2018-09-05T09:44:32.143Z,8.57
2018-09-05T09:45:35.793Z,10.63
2018-09-05T09:46:39.580Z,8.97
2018-09-05T09:47:43.237Z,12.93
2018-09-05T09:48:46.546Z,10.07
2018-09-05T09:49:49.939Z,8.80
2018-09-05T09:50:53.684Z,10.27
2018-09-05T09:52:03.394Z,10.13
2018-09-05T09:53:07.480Z,11.03
2018-09-05T09:54:11.181Z,8.07
2018-09-05T09:55:14.909Z,13.13
2018-09-05T09:56:18.359Z,9.27
2018-09-05T09:57:22.071Z,8.43
2018-09-05T09:58:25.618Z,7.50
2018-09-05T09:59:29.398Z,12.10
2018-09-05T10:00:38.703Z,7.90
2018-09-05T10:01:47.990Z,9.00
2018-09-05T10:02:57.254Z,7.23
2018-09-05T10:04:06.541Z,7.17
2018-09-05T10:05:15.893Z,7.43
2018-09-05T10:06:24.907Z,9.63
2018-09-05T10:07:34.144Z,8.77
2018-09-05T10:08:43.123Z,9.00
2018-09-05T10:09:51.986Z,9.30
2018-09-05T10:11:05.945Z,8.40
2018-09-05T10:12:15.003Z,8.00
2018-09-05T10:13:24.085Z,7.80
2018-09-05T10:14:31.490Z,7.73
2018-09-05T10:15:40.532Z,7.80
2018-09-05T10:16:49.809Z,9.13
2018-09-05T10:17:58.867Z,10.30
2018-09-05T10:19:06.885Z,8.77
2018-09-05T10:20:10.219Z,9.07
2018-09-05T10:21:13.685Z,8.77
2018-09-05T10:22:17.180Z,8.83
2018-09-05T10:23:20.620Z,8.97
2018-09-05T10:24:24.290Z,8.40
2018-09-05T10:25:27.833Z,7.90
2018-09-05T10:26:31.341Z,7.43
2018-09-05T10:27:35.086Z,10.93
2018-09-05T10:28:39.398Z,7.10
2018-09-05T10:29:44.002Z,8.57
2018-09-05T10:30:47.499Z,6.30
2018-09-05T10:31:51.245Z,7.77
2018-09-05T10:32:55.023Z,10.63
2018-09-05T10:33:58.526Z,12.30
2018-09-05T10:35:02.159Z,6.70
2018-09-05T10:36:05.885Z,7.03
2018-09-05T10:37:09.403Z,8.03
2018-09-05T10:38:13.284Z,6.60
2018-09-05T10:39:17.063Z,10.00
2018-09-05T10:40:20.691Z,7.90
2018-09-05T10:41:24.449Z,6.72
2018-09-05T10:42:30.919Z,6.53
2018-09-05T10:43:34.514Z,9.30
2018-09-05T10:44:38.108Z,8.07
2018-09-05T10:45:41.609Z,8.40
2018-09-05T10:46:44.974Z,8.47
2018-09-05T10:47:48.302Z,9.60
2018-09-05T10:48:51.753Z,9.10
2018-09-05T10:49:55.138Z,7.33
2018-09-05T10:50:58.774Z,6.60
2018-09-05T10:52:04.702Z,6.93
2018-09-05T10:53:08.296Z,7.33
2018-09-05T10:54:12.004Z,8.00
2018-09-05T10:55:15.515Z,8.13
2018-09-05T10:56:19.036Z,9.27
2018-09-05T10:57:22.593Z,8.37
2018-09-05T10:58:26.365Z,8.17
2018-09-05T10:59:30.325Z,6.47
2018-09-05T11:00:33.738Z,8.10
2018-09-05T11:01:37.359Z,8.03
2018-09-05T11:02:40.742Z,8.00
2018-09-05T11:03:44.415Z,11.07
2018-09-05T11:04:47.954Z,8.73
2018-09-05T11:05:51.568Z,8.47
2018-09-05T11:06:55.599Z,7.50
2018-09-05T11:07:59.347Z,6.93
2018-09-05T11:09:04.021Z,6.50
2018-09-05T11:10:07.689Z,7.47
2018-09-05T11:11:11.160Z,9.17
2018-09-05T11:12:14.643Z,6.92
2018-09-05T11:13:17.965Z,6.50
2018-09-05T11:14:21.265Z,7.73
2018-09-05T11:15:24.716Z,8.17
2018-09-05T11:16:28.277Z,9.33
2018-09-05T11:17:32.945Z,7.87
2018-09-05T11:18:36.339Z,7.30
2018-09-05T11:19:39.856Z,9.03
2018-09-05T11:20:43.499Z,8.23
2018-09-05T11:21:47.030Z,9.20
2018-09-05T11:22:50.397Z,7.25
2018-09-05T11:23:53.996Z,7.92
2018-09-05T11:24:57.508Z,5.83
2018-09-05T11:26:00.941Z,8.83
2018-09-05T11:27:04.580Z,6.70
2018-09-05T11:28:08.143Z,7.00
2018-09-05T11:29:11.685Z,7.83
2018-09-05T11:30:15.116Z,7.08
2018-09-05T11:31:18.593Z,6.53
2018-09-05T11:32:21.927Z,7.10
2018-09-05T11:33:25.279Z,8.00
2018-09-05T11:34:28.626Z,6.73
2018-09-05T11:35:32.115Z,8.27
2018-09-05T11:36:35.635Z,9.13
2018-09-05T11:37:39.230Z,9.28
2018-09-05T11:38:42.748Z,12.73
2018-09-05T11:39:46.188Z,7.13
2018-09-05T11:40:49.596Z,7.33
2018-09-05T11:41:53.098Z,8.37
2018-09-05T11:42:56.500Z,6.33
2018-09-05T11:43:59.813Z,7.63
2018-09-05T11:45:03.237Z,6.17
2018-09-05T11:46:06.626Z,8.15
2018-09-05T11:47:10.108Z,8.20
2018-09-05T11:48:13.447Z,6.50
2018-09-05T11:49:17.340Z,7.67
2018-09-05T11:50:20.954Z,5.97
2018-09-05T11:51:24.440Z,5.27
2018-09-05T11:52:27.985Z,5.30
2018-09-05T11:53:31.391Z,8.13
2018-09-05T11:54:34.800Z,7.93
2018-09-05T11:55:38.140Z,6.63
2018-09-05T11:56:41.557Z,5.67
2018-09-05T11:57:45.039Z,5.97
2018-09-05T11:58:48.390Z,7.58
2018-09-05T11:59:51.951Z,7.50
2018-09-05T12:00:55.575Z,6.50
2018-09-05T12:01:59.318Z,7.87
2018-09-05T12:03:02.730Z,6.87
2018-09-05T12:04:06.167Z,7.10
2018-09-05T12:05:09.551Z,6.50
2018-09-05T12:06:12.859Z,5.37
2018-09-05T12:07:16.509Z,5.92
2018-09-05T12:08:20.019Z,6.33
2018-09-05T12:09:23.604Z,7.12
2018-09-05T12:10:27.269Z,6.05
2018-09-05T12:11:30.780Z,6.60
2018-09-05T12:12:34.145Z,8.30
2018-09-05T12:13:37.662Z,6.08
2018-09-05T12:14:41.052Z,8.93
2018-09-05T12:15:44.629Z,6.05
2018-09-05T12:16:48.273Z,7.47
2018-09-05T12:17:51.671Z,7.20
2018-09-05T12:18:55.126Z,11.83
2018-09-05T12:19:58.485Z,5.37
2018-09-05T12:21:01.825Z,5.17
2018-09-05T12:22:05.247Z,7.90
2018-09-05T12:23:08.638Z,5.30
2018-09-05T12:24:11.992Z,4.72
2018-09-05T12:25:15.411Z,9.10
2018-09-05T12:26:18.768Z,6.47
2018-09-05T12:27:22.075Z,5.85
2018-09-05T12:28:25.447Z,7.55
2018-09-05T12:29:31.788Z,5.90
2018-09-05T12:30:35.290Z,6.55
2018-09-05T12:31:39.307Z,5.70
2018-09-05T12:32:42.750Z,6.40
2018-09-05T12:33:47.656Z,6.37
2018-09-05T12:34:51.919Z,7.47
2018-09-05T12:35:55.463Z,5.33
2018-09-05T12:36:58.945Z,7.55
2018-09-05T12:38:02.478Z,8.23
2018-09-05T12:39:10.424Z,6.85
2018-09-05T12:40:13.903Z,8.30
2018-09-05T12:41:17.511Z,4.72
2018-09-05T12:42:21.131Z,7.37
2018-09-05T12:43:24.474Z,6.92
2018-09-05T12:44:28.053Z,6.87
2018-09-05T12:45:31.576Z,7.55
2018-09-05T12:46:36.544Z,13.75
2018-09-05T12:47:40.202Z,4.30
2018-09-05T12:48:43.724Z,7.55
2018-09-05T12:49:47.701Z,6.90
2018-09-05T12:50:51.133Z,6.70
2018-09-05T12:51:54.639Z,6.03
2018-09-05T12:52:58.572Z,6.93
2018-09-05T12:54:01.934Z,5.50
2018-09-05T12:55:05.355Z,5.15
2018-09-05T12:56:08.904Z,6.90
2018-09-05T12:57:12.356Z,5.83
2018-09-05T12:58:17.526Z,6.72
2018-09-05T12:59:21.305Z,6.65
2018-09-05T13:00:25.017Z,6.40
2018-09-05T13:01:28.630Z,8.13
2018-09-05T13:02:32.156Z,6.10
2018-09-05T13:03:35.796Z,5.75
2018-09-05T13:04:39.219Z,4.72
2018-09-05T13:05:42.564Z,5.47
2018-09-05T13:06:45.969Z,8.08
2018-09-05T13:07:49.316Z,7.17
2018-09-05T13:08:52.637Z,6.20
2018-09-05T13:09:56.014Z,5.42
2018-09-05T13:10:59.548Z,5.03
2018-09-05T13:12:03.473Z,4.70
2018-09-05T13:13:06.898Z,6.40
2018-09-05T13:14:10.502Z,5.40
2018-09-05T13:15:13.870Z,6.08
2018-09-05T13:16:17.388Z,4.33
2018-09-05T13:17:21.059Z,5.75
2018-09-05T13:18:24.572Z,4.40
2018-09-05T13:19:29.261Z,9.38
2018-09-05T13:20:33.583Z,6.40
2018-09-05T13:21:36.974Z,7.65
2018-09-05T13:22:40.456Z,5.08
2018-09-05T13:23:43.828Z,4.17
2018-09-05T13:24:47.847Z,7.72
2018-09-05T13:25:52.577Z,5.35
2018-09-05T13:26:56.647Z,4.65
2018-09-05T13:28:00.174Z,5.08
2018-09-05T13:29:03.631Z,4.42
2018-09-05T13:30:07.141Z,5.80
2018-09-05T13:31:10.496Z,5.37
2018-09-05T13:32:13.917Z,5.33
2018-09-05T13:33:17.490Z,5.08
2018-09-05T13:34:21.065Z,4.53
2018-09-05T13:35:24.607Z,4.67
2018-09-05T13:36:28.221Z,5.15
2018-09-05T13:37:33.646Z,4.80
2018-09-05T13:38:38.313Z,5.47
2018-09-05T13:39:42.755Z,5.03
2018-09-05T13:40:46.393Z,5.03
2018-09-05T13:41:49.871Z,6.60
2018-09-05T13:42:54.346Z,6.80
2018-09-05T13:43:58.265Z,11.75
2018-09-05T13:45:02.531Z,6.85
2018-09-05T13:46:07.208Z,7.15
2018-09-05T13:47:11.353Z,5.95
2018-09-05T13:48:14.879Z,4.53
2018-09-05T13:49:18.756Z,4.55
2018-09-05T13:50:22.427Z,5.42
2018-09-05T13:51:26.233Z,4.75
2018-09-05T13:52:30.000Z,6.28
2018-09-05T13:53:33.619Z,4.65
2018-09-05T13:54:37.339Z,8.70
2018-09-05T13:55:40.816Z,10.53
2018-09-05T13:56:44.282Z,5.22
2018-09-05T13:57:47.748Z,5.75
2018-09-05T13:58:51.412Z,5.37
2018-09-05T13:59:54.956Z,8.70
2018-09-05T14:00:58.554Z,9.55
2018-09-05T14:02:02.312Z,6.60
2018-09-05T14:03:06.461Z,4.90
2018-09-05T14:04:11.206Z,6.62
2018-09-05T14:05:19.193Z,6.80
2018-09-05T14:06:22.949Z,5.40
2018-09-05T14:07:27.645Z,5.90
2018-09-05T14:08:31.360Z,5.87
2018-09-05T14:09:35.429Z,4.70
2018-09-05T14:10:39.045Z,7.00
2018-09-05T14:11:42.423Z,5.97
2018-09-05T14:12:46.799Z,5.92
2018-09-05T14:13:51.075Z,4.80
2018-09-05T14:14:54.697Z,5.00
2018-09-05T14:15:58.182Z,4.70
2018-09-05T14:17:01.756Z,9.23
2018-09-05T14:18:05.236Z,5.65
2018-09-05T14:19:13.180Z,8.10
2018-09-05T14:20:17.020Z,5.30
2018-09-05T14:21:20.677Z,6.67
2018-09-05T14:22:24.068Z,6.35
2018-09-05T14:23:27.687Z,6.22
2018-09-05T14:24:31.349Z,4.53
2018-09-05T14:25:34.983Z,10.25
2018-09-05T14:26:38.623Z,7.85
2018-09-05T14:27:42.112Z,6.35
2018-09-05T14:28:45.713Z,6.10
2018-09-05T14:29:49.345Z,5.70
2018-09-05T14:30:53.432Z,6.42
2018-09-05T14:31:56.803Z,4.85
2018-09-05T14:33:00.144Z,6.25
2018-09-05T14:34:03.796Z,7.42
2018-09-05T14:35:07.118Z,5.97
2018-09-05T14:36:10.514Z,6.95
2018-09-05T14:37:14.033Z,4.50
2018-09-05T14:38:17.489Z,5.95
2018-09-05T14:39:21.074Z,4.55
2018-09-05T14:40:24.626Z,5.90
2018-09-05T14:41:28.130Z,5.40
2018-09-05T14:42:31.549Z,4.97
2018-09-05T14:43:34.948Z,6.17
2018-09-05T14:44:38.320Z,8.00
2018-09-05T14:45:41.615Z,4.58
2018-09-05T14:46:45.251Z,8.13
2018-09-05T14:47:48.750Z,5.60
2018-09-05T14:48:52.302Z,5.83
2018-09-05T14:49:56.128Z,5.72
2018-09-05T14:50:59.481Z,6.85
2018-09-05T14:52:03.185Z,5.15
2018-09-05T14:53:06.731Z,4.83
2018-09-05T14:54:10.145Z,5.80
2018-09-05T14:55:13.576Z,4.92
2018-09-05T14:56:16.966Z,7.83
2018-09-05T14:57:20.709Z,7.85
2018-09-05T14:58:24.461Z,5.53
2018-09-05T14:59:28.256Z,6.05
2018-09-05T15:00:31.740Z,6.55
2018-09-05T15:01:35.931Z,4.70
2018-09-05T15:02:40.360Z,5.95
2018-09-05T15:03:45.341Z,6.72
2018-09-05T15:04:48.923Z,6.67
2018-09-05T15:05:52.776Z,7.17
2018-09-05T15:06:56.156Z,4.53
2018-09-05T15:07:59.557Z,4.22
2018-09-05T15:09:03.831Z,4.55
2018-09-05T15:10:07.204Z,5.62
2018-09-05T15:11:10.647Z,4.72
2018-09-05T15:12:14.006Z,4.47
2018-09-05T15:13:17.493Z,5.47
2018-09-05T15:14:21.096Z,7.15
2018-09-05T15:15:24.708Z,5.70
2018-09-05T15:16:28.202Z,4.70
2018-09-05T15:17:31.919Z,4.97
2018-09-05T15:18:35.520Z,5.47
2018-09-05T15:19:38.841Z,8.45
2018-09-05T15:20:42.159Z,5.97
2018-09-05T15:21:45.691Z,5.55
2018-09-05T15:22:49.148Z,4.20
2018-09-05T15:23:53.693Z,5.15
2018-09-05T15:24:58.278Z,9.35
2018-09-05T15:26:02.501Z,4.05
2018-09-05T15:27:06.810Z,5.83
2018-09-05T15:28:11.079Z,5.67
2018-09-05T15:29:16.341Z,10.35
2018-09-05T15:30:20.636Z,7.17
2018-09-05T15:31:24.846Z,5.60
2018-09-05T15:32:29.041Z,4.47
2018-09-05T15:33:32.660Z,6.05
2018-09-05T15:34:37.400Z,6.95
2018-09-05T15:35:40.866Z,7.30
2018-09-05T15:36:44.578Z,6.25
2018-09-05T15:37:48.046Z,5.97
2018-09-05T15:38:51.550Z,4.28
2018-09-05T15:39:55.015Z,7.22
2018-09-05T15:40:58.774Z,7.00
2018-09-05T15:42:02.317Z,5.33
2018-09-05T15:43:06.534Z,4.92
2018-09-05T15:44:10.210Z,5.35
2018-09-05T15:45:14.808Z,8.83
2018-09-05T15:46:19.824Z,6.17
2018-09-05T15:47:23.320Z,4.42
2018-09-05T15:48:27.008Z,5.22
2018-09-05T15:49:30.688Z,7.30
2018-09-05T15:50:34.368Z,7.08
2018-09-05T15:51:37.863Z,5.60
2018-09-05T15:52:41.447Z,5.08
2018-09-05T15:53:45.022Z,8.33
2018-09-05T15:54:48.518Z,6.75
2018-09-05T15:55:52.057Z,4.10
2018-09-05T15:56:55.605Z,5.60
2018-09-05T15:57:59.233Z,5.90
2018-09-05T15:59:03.033Z,4.80
2018-09-05T16:00:06.682Z,5.08
2018-09-05T16:01:10.352Z,6.40
2018-09-05T16:02:13.875Z,8.35
2018-09-05T16:03:18.004Z,7.12
2018-09-05T16:04:21.384Z,4.78
2018-09-05T16:05:25.093Z,6.92
2018-09-05T16:06:28.589Z,9.03
2018-09-05T16:07:32.056Z,5.55
2018-09-05T16:08:35.654Z,7.12
2018-09-05T16:09:39.007Z,5.90
2018-09-05T16:10:42.555Z,6.42
2018-09-05T16:11:46.007Z,7.55
2018-09-05T16:12:49.653Z,5.45
2018-09-05T16:13:53.150Z,4.62
2018-09-05T16:14:56.596Z,5.10
2018-09-05T16:15:59.928Z,5.33
2018-09-05T16:17:03.458Z,5.15
2018-09-05T16:18:07.004Z,8.68
2018-09-05T16:19:10.395Z,5.25
2018-09-05T16:20:13.879Z,7.33
2018-09-05T16:21:17.246Z,5.75
2018-09-05T16:22:20.632Z,5.00
2018-09-05T16:23:24.070Z,7.65
2018-09-05T16:24:27.566Z,6.97
2018-09-05T16:25:31.133Z,4.50
2018-09-05T16:26:34.756Z,4.42
2018-09-05T16:27:38.285Z,5.58
2018-09-05T16:28:41.696Z,6.03
2018-09-05T16:29:45.087Z,5.83
2018-09-05T16:30:48.675Z,6.65
2018-09-05T16:31:52.243Z,4.22
2018-09-05T16:32:55.956Z,10.03
2018-09-05T16:33:58.839Z,7.08
2018-09-05T16:35:02.283Z,7.83
2018-09-05T16:36:05.883Z,6.85
2018-09-05T16:37:09.398Z,5.87
2018-09-05T16:38:12.751Z,6.33
2018-09-05T16:39:16.097Z,7.08
2018-09-05T16:40:19.828Z,4.90
2018-09-05T16:41:23.205Z,16.12
2018-09-05T16:42:26.754Z,6.75
2018-09-05T16:43:30.355Z,5.75
2018-09-05T16:44:33.969Z,6.03
2018-09-05T16:45:37.549Z,8.03
2018-09-05T16:46:41.083Z,6.28
2018-09-05T16:47:44.703Z,4.67
2018-09-05T16:48:48.237Z,5.23
2018-09-05T16:49:51.677Z,7.50
2018-09-05T16:50:55.195Z,9.30
2018-09-05T16:51:58.903Z,6.30
2018-09-05T16:53:02.407Z,6.85
2018-09-05T16:54:05.873Z,5.87
2018-09-05T16:55:09.453Z,5.47
2018-09-05T16:56:13.011Z,4.47
2018-09-05T16:57:16.574Z,7.17
2018-09-05T16:58:20.225Z,7.10
2018-09-05T16:59:23.737Z,7.70
2018-09-05T17:00:27.398Z,6.65
2018-09-05T17:01:31.010Z,6.90
2018-09-05T17:02:34.749Z,5.25
2018-09-05T17:03:38.204Z,6.87
2018-09-05T17:04:41.786Z,5.17
2018-09-05T17:05:45.170Z,6.03
2018-09-05T17:06:48.668Z,5.25
2018-09-05T17:07:52.073Z,5.43
2018-09-05T17:08:55.433Z,6.78
2018-09-05T17:09:59.083Z,7.55
2018-09-05T17:11:02.883Z,7.60
2018-09-05T17:12:06.409Z,7.42
2018-09-05T17:13:09.980Z,5.30
2018-09-05T17:14:13.447Z,8.73
2018-09-05T17:15:16.834Z,7.50
2018-09-05T17:16:20.353Z,6.00
2018-09-05T17:17:23.965Z,5.97
2018-09-05T17:18:27.374Z,4.97
2018-09-05T17:19:30.845Z,5.80
2018-09-05T17:20:34.186Z,5.20
2018-09-05T17:21:37.794Z,5.95
2018-09-05T17:22:41.337Z,7.20
2018-09-05T17:23:44.715Z,5.50
2018-09-05T17:24:48.169Z,5.87
2018-09-05T17:25:51.706Z,5.90
2018-09-05T17:26:55.213Z,7.72
2018-09-05T17:27:58.727Z,5.67
2018-09-05T17:29:02.270Z,8.23
2018-09-05T17:30:05.754Z,11.93
2018-09-05T17:31:09.269Z,8.63
2018-09-05T17:32:12.990Z,7.57
2018-09-05T17:33:16.920Z,8.48
2018-09-05T17:34:20.635Z,6.50
2018-09-05T17:35:24.515Z,6.40
2018-09-05T17:36:28.085Z,8.28
2018-09-05T17:37:31.945Z,7.53
2018-09-05T17:38:35.478Z,13.37
2018-09-05T17:39:39.060Z,7.90
2018-09-05T17:40:46.277Z,6.20
2018-09-05T17:41:50.284Z,7.35
2018-09-05T17:42:53.697Z,8.33
2018-09-05T17:43:57.148Z,7.37
2018-09-05T17:45:00.680Z,9.07
2018-09-05T17:46:04.548Z,12.43
2018-09-05T17:47:08.255Z,8.07
2018-09-05T17:48:11.928Z,5.80
2018-09-05T17:49:15.585Z,7.63
2018-09-05T17:50:19.133Z,6.60
2018-09-05T17:51:22.562Z,6.87
2018-09-05T17:52:26.107Z,7.00
2018-09-05T17:53:29.818Z,5.70
2018-09-05T17:54:33.463Z,7.33
2018-09-05T17:55:36.924Z,8.07
2018-09-05T17:56:40.492Z,6.17
2018-09-05T17:57:43.929Z,7.07
2018-09-05T17:58:47.337Z,7.70
2018-09-05T17:59:50.740Z,6.17
2018-09-05T18:00:54.451Z,7.50
2018-09-05T18:01:57.910Z,5.73
2018-09-05T18:03:01.426Z,5.45
2018-09-05T18:04:04.862Z,7.27
2018-09-05T18:05:08.591Z,6.93
2018-09-05T18:06:12.028Z,6.40
2018-09-05T18:07:15.461Z,6.10
2018-09-05T18:08:18.848Z,6.73
2018-09-05T18:09:22.189Z,9.10
2018-09-05T18:10:25.513Z,9.83
2018-09-05T18:11:28.887Z,8.10
2018-09-05T18:12:32.202Z,6.10
2018-09-05T18:13:35.628Z,9.07
2018-09-05T18:14:39.199Z,8.70
2018-09-05T18:15:42.488Z,5.40
2018-09-05T18:16:45.998Z,6.83
2018-09-05T18:17:49.723Z,8.78
2018-09-05T18:18:53.388Z,6.03
2018-09-05T18:19:57.028Z,6.23
2018-09-05T18:21:00.572Z,5.37
2018-09-05T18:22:04.025Z,8.50
2018-09-05T18:23:07.430Z,5.53
2018-09-05T18:24:10.758Z,6.07
2018-09-05T18:25:14.484Z,8.70
2018-09-05T18:26:17.880Z,8.23
2018-09-05T18:27:21.344Z,8.23
2018-09-05T18:28:24.771Z,6.25
2018-09-05T18:29:28.311Z,7.87
2018-09-05T18:30:31.660Z,6.23
2018-09-05T18:31:35.301Z,8.63
2018-09-05T18:32:38.741Z,6.43
2018-09-05T18:33:42.216Z,7.40
2018-09-05T18:34:45.579Z,7.40
2018-09-05T18:35:48.906Z,6.23
2018-09-05T18:36:52.327Z,7.67
2018-09-05T18:37:55.791Z,6.13
2018-09-05T18:38:59.108Z,7.20
2018-09-05T18:40:02.633Z,4.90
2018-09-05T18:41:06.062Z,5.97
2018-09-05T18:42:09.516Z,5.67
2018-09-05T18:43:13.295Z,7.10
2018-09-05T18:44:16.724Z,5.65
2018-09-05T18:45:20.263Z,5.27
2018-09-05T18:46:23.650Z,6.10
2018-09-05T18:47:27.244Z,6.90
2018-09-05T18:48:30.562Z,9.13
2018-09-05T18:49:34.313Z,5.60
2018-09-05T18:50:37.757Z,7.00
2018-09-05T18:51:41.230Z,6.93
2018-09-05T18:52:44.798Z,7.63
2018-09-05T18:53:48.172Z,5.30
2018-09-05T18:54:51.635Z,7.10
2018-09-05T18:55:55.067Z,5.80
2018-09-05T18:56:58.506Z,6.20
2018-09-05T18:58:01.996Z,6.43
2018-09-05T18:59:05.601Z,5.73
2018-09-05T19:00:09.204Z,8.87
2018-09-05T19:01:12.888Z,5.50
2018-09-05T19:02:16.358Z,6.20
2018-09-05T19:03:19.850Z,5.47
2018-09-05T19:04:23.458Z,5.73
2018-09-05T19:05:27.010Z,5.20
2018-09-05T19:06:30.537Z,8.47
2018-09-05T19:07:33.997Z,6.23
2018-09-05T19:08:37.614Z,6.47
2018-09-05T19:09:41.224Z,5.57
2018-09-05T19:10:44.608Z,7.40
2018-09-05T19:11:48.211Z,7.07
2018-09-05T19:12:51.742Z,6.23
2018-09-05T19:13:55.162Z,4.97
2018-09-05T19:14:58.671Z,5.17
2018-09-05T19:16:02.138Z,5.77
2018-09-05T19:17:05.651Z,7.13
2018-09-05T19:18:09.336Z,6.53
2018-09-05T19:19:12.789Z,6.37
2018-09-05T19:20:16.403Z,5.93
2018-09-05T19:21:19.980Z,4.67
2018-09-05T19:22:23.692Z,4.93
2018-09-05T19:23:27.338Z,5.10
2018-09-05T19:24:30.991Z,4.60
2018-09-05T19:25:34.672Z,7.10
2018-09-05T19:26:38.312Z,5.87
2018-09-05T19:27:42.168Z,6.90
2018-09-05T19:28:45.861Z,5.67
2018-09-05T19:29:49.424Z,5.90
2018-09-05T19:30:52.940Z,8.43
2018-09-05T19:31:56.537Z,5.30
2018-09-05T19:33:00.115Z,4.80
2018-09-05T19:34:03.583Z,9.67
2018-09-05T19:35:07.304Z,7.60
2018-09-05T19:36:10.769Z,7.80
2018-09-05T19:37:14.268Z,5.33
2018-09-05T19:38:17.744Z,6.00
2018-09-05T19:39:21.393Z,6.57
2018-09-05T19:40:24.922Z,6.00
2018-09-05T19:41:28.307Z,9.13
2018-09-05T19:42:32.236Z,6.53
2018-09-05T19:43:35.986Z,8.23
2018-09-05T19:44:39.622Z,5.53
2018-09-05T19:45:43.180Z,5.20
2018-09-05T19:46:46.688Z,6.30
2018-09-05T19:47:50.112Z,9.27
2018-09-05T19:48:53.564Z,5.57
2018-09-05T19:49:57.099Z,6.47
2018-09-05T19:51:00.681Z,5.27
2018-09-05T19:52:04.125Z,6.23
2018-09-05T19:53:07.904Z,6.43
2018-09-05T19:54:11.771Z,5.10
2018-09-05T19:55:15.363Z,6.53
2018-09-05T19:56:18.778Z,5.83
2018-09-05T19:57:22.183Z,7.97
2018-09-05T19:58:25.553Z,5.23
2018-09-05T19:59:29.015Z,8.17
2018-09-05T20:00:32.504Z,6.07
2018-09-05T20:01:35.915Z,5.70
2018-09-05T20:02:39.379Z,7.27
2018-09-05T20:03:42.768Z,4.90
2018-09-05T20:04:46.218Z,9.53
2018-09-05T20:05:50.001Z,5.97
2018-09-05T20:06:53.336Z,6.43
2018-09-05T20:07:56.704Z,7.03
2018-09-05T20:09:00.026Z,5.03
2018-09-05T20:10:03.593Z,5.70
2018-09-05T20:11:06.925Z,5.53
2018-09-05T20:12:10.219Z,10.43
2018-09-05T20:13:13.624Z,6.20
2018-09-05T20:14:16.963Z,5.20
2018-09-05T20:15:20.482Z,5.37
2018-09-05T20:16:23.854Z,6.13
2018-09-05T20:17:27.194Z,8.97
2018-09-05T20:18:30.538Z,6.43
2018-09-05T20:19:34.014Z,5.10
2018-09-05T20:20:37.641Z,8.20
2018-09-05T20:21:41.068Z,5.47
2018-09-05T20:22:44.461Z,5.23
2018-09-05T20:23:47.884Z,5.17
2018-09-05T20:24:51.708Z,6.50
2018-09-05T20:25:55.085Z,11.03
2018-09-05T20:26:58.476Z,5.30
2018-09-05T20:28:01.911Z,6.07
2018-09-05T20:29:05.491Z,9.70
2018-09-05T20:30:08.808Z,4.93
2018-09-05T20:31:12.262Z,8.40
2018-09-05T20:32:15.649Z,6.90
2018-09-05T20:33:19.035Z,7.70
2018-09-05T20:34:22.455Z,6.97
2018-09-05T20:35:26.022Z,6.73
2018-09-05T20:36:29.471Z,6.80
2018-09-05T20:37:32.892Z,6.13
2018-09-05T20:38:36.197Z,5.17
2018-09-05T20:39:39.580Z,6.37
2018-09-05T20:40:42.991Z,6.87
2018-09-05T20:41:46.344Z,5.27
2018-09-05T20:42:49.666Z,7.57
2018-09-05T20:43:53.042Z,6.40
2018-09-05T20:44:56.411Z,8.70
2018-09-05T20:45:59.746Z,6.90
2018-09-05T20:47:03.725Z,7.93
2018-09-05T20:48:07.087Z,7.50
2018-09-05T20:49:10.527Z,8.27
2018-09-05T20:50:13.956Z,5.40
2018-09-05T20:51:17.461Z,7.93
2018-09-05T20:52:20.897Z,6.93
2018-09-05T20:53:24.259Z,7.20
2018-09-05T20:54:27.618Z,7.07